sensor_id;sensor_type;location;lat;lon;timestamp;P1;durP1;ratioP1;P2;durP2;ratioP2
6348;SDS011;3207;42.648;23.406;2022-12-05T00:01:23;32.23;;;22.50;;
6348;SDS011;3207;42.648;23.406;2022-12-05T00:03:52;41.03;;;22.83;;
6348;SDS011;3207;42.648;23.406;2022-12-05T00:06:21;35.03;;;23.17;;
6348;SDS011;3207;42.648;23.406;2022-12-05T00:08:49;32.17;;;23.07;;
6348;SDS011;3207;42.648;23.406;2022-12-05T00:11:17;27.53;;;19.67;;
6348;SDS011;3207;42.648;23.406;2022-12-05T00:13:45;27.23;;;19.03;;
6348;SDS011;3207;42.648;23.406;2022-12-05T00:16:13;26.17;;;19.10;;
6348;SDS011;3207;42.648;23.406;2022-12-05T00:18:41;29.63;;;20.23;;
6348;SDS011;3207;42.648;23.406;2022-12-05T00:21:11;31.83;;;19.40;;
6348;SDS011;3207;42.648;23.406;2022-12-05T00:23:39;30.90;;;20.00;;
6348;SDS011;3207;42.648;23.406;2022-12-05T00:26:06;33.83;;;21.33;;
6348;SDS011;3207;42.648;23.406;2022-12-05T00:28:34;28.20;;;19.67;;
6348;SDS011;3207;42.648;23.406;2022-12-05T00:31:01;28.80;;;20.60;;
6348;SDS011;3207;42.648;23.406;2022-12-05T00:33:29;29.30;;;20.07;;
6348;SDS011;3207;42.648;23.406;2022-12-05T00:35:59;29.37;;;20.40;;
6348;SDS011;3207;42.648;23.406;2022-12-05T00:38:30;30.47;;;20.80;;
6348;SDS011;3207;42.648;23.406;2022-12-05T00:41:00;30.53;;;19.70;;
6348;SDS011;3207;42.648;23.406;2022-12-05T00:43:28;27.30;;;19.17;;
6348;SDS011;3207;42.648;23.406;2022-12-05T00:45:56;29.67;;;19.00;;
6348;SDS011;3207;42.648;23.406;2022-12-05T00:48:26;31.53;;;19.67;;
6348;SDS011;3207;42.648;23.406;2022-12-05T00:50:58;27.73;;;19.33;;
6348;SDS011;3207;42.648;23.406;2022-12-05T00:53:26;28.80;;;18.93;;
6348;SDS011;3207;42.648;23.406;2022-12-05T00:55:52;27.07;;;17.73;;
6348;SDS011;3207;42.648;23.406;2022-12-05T00:58:19;28.47;;;18.73;;
6348;SDS011;3207;42.648;23.406;2022-12-05T01:00:46;29.17;;;18.13;;
6348;SDS011;3207;42.648;23.406;2022-12-05T01:03:14;25.97;;;18.40;;
6348;SDS011;3207;42.648;23.406;2022-12-05T01:05:41;22.13;;;16.33;;
6348;SDS011;3207;42.648;23.406;2022-12-05T01:08:08;25.30;;;17.00;;
6348;SDS011;3207;42.648;23.406;2022-12-05T01:10:35;24.90;;;17.47;;
6348;SDS011;3207;42.648;23.406;2022-12-05T01:13:01;27.67;;;18.13;;
6348;SDS011;3207;42.648;23.406;2022-12-05T01:15:28;23.73;;;16.90;;
6348;SDS011;3207;42.648;23.406;2022-12-05T01:17:55;21.83;;;15.27;;
6348;SDS011;3207;42.648;23.406;2022-12-05T01:20:23;23.47;;;15.30;;
6348;SDS011;3207;42.648;23.406;2022-12-05T01:22:50;20.67;;;15.23;;
6348;SDS011;3207;42.648;23.406;2022-12-05T01:25:17;22.60;;;16.67;;
6348;SDS011;3207;42.648;23.406;2022-12-05T01:27:44;24.77;;;17.63;;
6348;SDS011;3207;42.648;23.406;2022-12-05T01:30:11;23.63;;;16.47;;
6348;SDS011;3207;42.648;23.406;2022-12-05T01:32:38;23.13;;;17.07;;
6348;SDS011;3207;42.648;23.406;2022-12-05T01:35:05;21.90;;;15.53;;
6348;SDS011;3207;42.648;23.406;2022-12-05T01:37:33;24.97;;;17.83;;
6348;SDS011;3207;42.648;23.406;2022-12-05T01:40:00;25.37;;;18.30;;
6348;SDS011;3207;42.648;23.406;2022-12-05T01:42:28;23.23;;;18.17;;
6348;SDS011;3207;42.648;23.406;2022-12-05T01:44:59;24.13;;;17.00;;
6348;SDS011;3207;42.648;23.406;2022-12-05T01:47:29;27.20;;;17.30;;
6348;SDS011;3207;42.648;23.406;2022-12-05T01:49:57;26.03;;;15.60;;
6348;SDS011;3207;42.648;23.406;2022-12-05T01:52:26;25.80;;;19.40;;
6348;SDS011;3207;42.648;23.406;2022-12-05T01:54:57;26.03;;;17.90;;
6348;SDS011;3207;42.648;23.406;2022-12-05T01:57:26;26.63;;;18.73;;
6348;SDS011;3207;42.648;23.406;2022-12-05T01:59:54;28.63;;;19.57;;
6348;SDS011;3207;42.648;23.406;2022-12-05T02:02:25;23.57;;;16.37;;
6348;SDS011;3207;42.648;23.406;2022-12-05T02:04:55;24.47;;;15.90;;
6348;SDS011;3207;42.648;23.406;2022-12-05T02:07:26;26.83;;;17.57;;
6348;SDS011;3207;42.648;23.406;2022-12-05T02:09:53;25.87;;;17.83;;
6348;SDS011;3207;42.648;23.406;2022-12-05T02:12:21;22.80;;;16.33;;
6348;SDS011;3207;42.648;23.406;2022-12-05T02:14:53;28.50;;;18.23;;
6348;SDS011;3207;42.648;23.406;2022-12-05T02:17:33;28.03;;;16.47;;
6348;SDS011;3207;42.648;23.406;2022-12-05T02:20:10;29.70;;;19.00;;
6348;SDS011;3207;42.648;23.406;2022-12-05T02:23:09;28.57;;;18.27;;
6348;SDS011;3207;42.648;23.406;2022-12-05T02:25:59;27.40;;;17.00;;
6348;SDS011;3207;42.648;23.406;2022-12-05T02:28:55;27.30;;;18.27;;
6348;SDS011;3207;42.648;23.406;2022-12-05T02:31:49;27.80;;;18.60;;
6348;SDS011;3207;42.648;23.406;2022-12-05T02:34:22;28.67;;;17.47;;
6348;SDS011;3207;42.648;23.406;2022-12-05T02:36:54;26.63;;;17.43;;
6348;SDS011;3207;42.648;23.406;2022-12-05T02:39:26;25.20;;;16.87;;
6348;SDS011;3207;42.648;23.406;2022-12-05T02:42:02;25.60;;;17.77;;
6348;SDS011;3207;42.648;23.406;2022-12-05T02:44:36;26.43;;;16.47;;
6348;SDS011;3207;42.648;23.406;2022-12-05T02:47:12;27.37;;;18.47;;
6348;SDS011;3207;42.648;23.406;2022-12-05T02:49:43;26.97;;;18.63;;
6348;SDS011;3207;42.648;23.406;2022-12-05T02:52:11;32.47;;;18.70;;
6348;SDS011;3207;42.648;23.406;2022-12-05T02:54:42;30.33;;;19.03;;
6348;SDS011;3207;42.648;23.406;2022-12-05T02:57:14;28.73;;;19.03;;
6348;SDS011;3207;42.648;23.406;2022-12-05T02:59:43;24.10;;;17.83;;
6348;SDS011;3207;42.648;23.406;2022-12-05T03:02:20;32.13;;;19.30;;
6348;SDS011;3207;42.648;23.406;2022-12-05T03:04:49;30.47;;;19.33;;
6348;SDS011;3207;42.648;23.406;2022-12-05T03:07:16;26.13;;;17.30;;
6348;SDS011;3207;42.648;23.406;2022-12-05T03:09:48;31.07;;;18.73;;
6348;SDS011;3207;42.648;23.406;2022-12-05T03:12:19;33.73;;;21.50;;
6348;SDS011;3207;42.648;23.406;2022-12-05T03:14:49;28.50;;;19.87;;
6348;SDS011;3207;42.648;23.406;2022-12-05T03:17:21;30.73;;;19.50;;
6348;SDS011;3207;42.648;23.406;2022-12-05T03:19:52;32.23;;;21.37;;
6348;SDS011;3207;42.648;23.406;2022-12-05T03:22:26;29.00;;;18.90;;
6348;SDS011;3207;42.648;23.406;2022-12-05T03:24:57;29.73;;;19.27;;
6348;SDS011;3207;42.648;23.406;2022-12-05T03:27:25;28.00;;;18.90;;
6348;SDS011;3207;42.648;23.406;2022-12-05T03:29:57;28.77;;;18.83;;
6348;SDS011;3207;42.648;23.406;2022-12-05T03:32:31;29.57;;;19.00;;
6348;SDS011;3207;42.648;23.406;2022-12-05T03:35:08;31.77;;;18.17;;
6348;SDS011;3207;42.648;23.406;2022-12-05T03:37:41;29.33;;;18.47;;
6348;SDS011;3207;42.648;23.406;2022-12-05T03:40:17;27.00;;;17.77;;
6348;SDS011;3207;42.648;23.406;2022-12-05T03:42:53;28.17;;;17.23;;
6348;SDS011;3207;42.648;23.406;2022-12-05T03:45:26;22.60;;;14.80;;
6348;SDS011;3207;42.648;23.406;2022-12-05T03:48:01;20.47;;;12.70;;
6348;SDS011;3207;42.648;23.406;2022-12-05T03:50:32;12.30;;;9.03;;
6348;SDS011;3207;42.648;23.406;2022-12-05T03:53:04;17.27;;;10.53;;
6348;SDS011;3207;42.648;23.406;2022-12-05T03:55:36;17.30;;;11.70;;
6348;SDS011;3207;42.648;23.406;2022-12-05T03:58:06;15.97;;;11.67;;
6348;SDS011;3207;42.648;23.406;2022-12-05T04:00:36;14.67;;;10.60;;
6348;SDS011;3207;42.648;23.406;2022-12-05T04:03:09;16.33;;;11.60;;
6348;SDS011;3207;42.648;23.406;2022-12-05T04:05:41;21.40;;;13.03;;
6348;SDS011;3207;42.648;23.406;2022-12-05T04:08:12;23.87;;;13.70;;
6348;SDS011;3207;42.648;23.406;2022-12-05T04:10:45;19.17;;;13.33;;
6348;SDS011;3207;42.648;23.406;2022-12-05T04:13:15;18.97;;;12.90;;
6348;SDS011;3207;42.648;23.406;2022-12-05T04:15:47;20.83;;;14.00;;
6348;SDS011;3207;42.648;23.406;2022-12-05T04:18:48;16.33;;;11.20;;
6348;SDS011;3207;42.648;23.406;2022-12-05T04:21:19;16.97;;;12.77;;
6348;SDS011;3207;42.648;23.406;2022-12-05T04:24:02;16.53;;;12.30;;
6348;SDS011;3207;42.648;23.406;2022-12-05T04:26:47;17.63;;;12.00;;
6348;SDS011;3207;42.648;23.406;2022-12-05T04:29:24;16.33;;;11.20;;
6348;SDS011;3207;42.648;23.406;2022-12-05T04:31:56;15.63;;;11.17;;
6348;SDS011;3207;42.648;23.406;2022-12-05T04:34:28;17.03;;;11.67;;
6348;SDS011;3207;42.648;23.406;2022-12-05T04:36:59;17.20;;;12.53;;
6348;SDS011;3207;42.648;23.406;2022-12-05T04:39:30;20.33;;;12.87;;
6348;SDS011;3207;42.648;23.406;2022-12-05T04:42:02;18.17;;;11.70;;
6348;SDS011;3207;42.648;23.406;2022-12-05T04:44:33;19.20;;;12.57;;
6348;SDS011;3207;42.648;23.406;2022-12-05T04:47:03;28.50;;;18.17;;
6348;SDS011;3207;42.648;23.406;2022-12-05T04:49:35;20.20;;;14.60;;
6348;SDS011;3207;42.648;23.406;2022-12-05T04:52:03;22.03;;;14.67;;
6348;SDS011;3207;42.648;23.406;2022-12-05T04:54:35;20.40;;;13.53;;
6348;SDS011;3207;42.648;23.406;2022-12-05T04:57:08;20.77;;;13.97;;
6348;SDS011;3207;42.648;23.406;2022-12-05T04:59:42;20.63;;;14.60;;
6348;SDS011;3207;42.648;23.406;2022-12-05T05:02:09;20.57;;;13.10;;
6348;SDS011;3207;42.648;23.406;2022-12-05T05:04:41;19.93;;;13.00;;
6348;SDS011;3207;42.648;23.406;2022-12-05T05:07:12;17.77;;;12.23;;
6348;SDS011;3207;42.648;23.406;2022-12-05T05:09:40;16.63;;;12.20;;
6348;SDS011;3207;42.648;23.406;2022-12-05T05:12:07;19.17;;;12.53;;
6348;SDS011;3207;42.648;23.406;2022-12-05T05:14:34;19.83;;;13.50;;
6348;SDS011;3207;42.648;23.406;2022-12-05T05:17:01;16.93;;;11.97;;
6348;SDS011;3207;42.648;23.406;2022-12-05T05:19:28;17.90;;;12.30;;
6348;SDS011;3207;42.648;23.406;2022-12-05T05:21:56;19.73;;;13.37;;
6348;SDS011;3207;42.648;23.406;2022-12-05T05:24:23;23.17;;;15.23;;
6348;SDS011;3207;42.648;23.406;2022-12-05T05:26:50;20.17;;;13.50;;
6348;SDS011;3207;42.648;23.406;2022-12-05T05:29:17;21.23;;;13.77;;
6348;SDS011;3207;42.648;23.406;2022-12-05T05:31:44;19.80;;;13.60;;
6348;SDS011;3207;42.648;23.406;2022-12-05T05:34:11;21.27;;;13.63;;
6348;SDS011;3207;42.648;23.406;2022-12-05T05:36:40;20.17;;;13.03;;
6348;SDS011;3207;42.648;23.406;2022-12-05T05:39:11;19.53;;;13.57;;
6348;SDS011;3207;42.648;23.406;2022-12-05T05:41:39;21.50;;;14.87;;
6348;SDS011;3207;42.648;23.406;2022-12-05T05:44:06;19.77;;;12.50;;
6348;SDS011;3207;42.648;23.406;2022-12-05T05:46:35;25.17;;;15.40;;
6348;SDS011;3207;42.648;23.406;2022-12-05T05:49:02;25.83;;;16.00;;
6348;SDS011;3207;42.648;23.406;2022-12-05T05:51:30;25.17;;;15.47;;
6348;SDS011;3207;42.648;23.406;2022-12-05T05:53:57;20.90;;;13.93;;
6348;SDS011;3207;42.648;23.406;2022-12-05T05:56:26;23.60;;;15.43;;
6348;SDS011;3207;42.648;23.406;2022-12-05T05:58:55;25.60;;;15.67;;
6348;SDS011;3207;42.648;23.406;2022-12-05T06:01:23;22.80;;;13.73;;
6348;SDS011;3207;42.648;23.406;2022-12-05T06:03:50;25.87;;;15.13;;
6348;SDS011;3207;42.648;23.406;2022-12-05T06:06:18;24.30;;;15.77;;
6348;SDS011;3207;42.648;23.406;2022-12-05T06:08:45;24.53;;;14.67;;
6348;SDS011;3207;42.648;23.406;2022-12-05T06:11:13;26.90;;;15.20;;
6348;SDS011;3207;42.648;23.406;2022-12-05T06:13:42;26.23;;;17.27;;
6348;SDS011;3207;42.648;23.406;2022-12-05T06:16:10;24.30;;;14.20;;
6348;SDS011;3207;42.648;23.406;2022-12-05T06:18:37;22.23;;;15.20;;
6348;SDS011;3207;42.648;23.406;2022-12-05T06:21:04;26.70;;;14.73;;
6348;SDS011;3207;42.648;23.406;2022-12-05T06:23:32;24.37;;;14.73;;
6348;SDS011;3207;42.648;23.406;2022-12-05T06:26:00;26.63;;;14.80;;
6348;SDS011;3207;42.648;23.406;2022-12-05T06:28:27;23.33;;;14.67;;
6348;SDS011;3207;42.648;23.406;2022-12-05T06:30:55;26.03;;;14.87;;
6348;SDS011;3207;42.648;23.406;2022-12-05T06:33:22;26.57;;;15.47;;
6348;SDS011;3207;42.648;23.406;2022-12-05T06:35:56;25.37;;;14.77;;
6348;SDS011;3207;42.648;23.406;2022-12-05T06:38:26;24.33;;;13.77;;
6348;SDS011;3207;42.648;23.406;2022-12-05T06:40:53;21.53;;;14.17;;
6348;SDS011;3207;42.648;23.406;2022-12-05T06:43:20;23.53;;;13.70;;
6348;SDS011;3207;42.648;23.406;2022-12-05T06:45:47;23.63;;;15.13;;
6348;SDS011;3207;42.648;23.406;2022-12-05T06:48:15;26.43;;;15.93;;
6348;SDS011;3207;42.648;23.406;2022-12-05T06:50:46;23.63;;;14.93;;
6348;SDS011;3207;42.648;23.406;2022-12-05T06:53:14;21.97;;;13.33;;
6348;SDS011;3207;42.648;23.406;2022-12-05T06:55:41;27.67;;;16.70;;
6348;SDS011;3207;42.648;23.406;2022-12-05T06:58:07;21.13;;;13.73;;
6348;SDS011;3207;42.648;23.406;2022-12-05T07:00:34;20.57;;;12.33;;
6348;SDS011;3207;42.648;23.406;2022-12-05T07:03:20;20.57;;;12.20;;
6348;SDS011;3207;42.648;23.406;2022-12-05T07:05:46;21.27;;;12.73;;
6348;SDS011;3207;42.648;23.406;2022-12-05T07:08:13;18.70;;;12.50;;
6348;SDS011;3207;42.648;23.406;2022-12-05T07:10:40;21.90;;;12.60;;
6348;SDS011;3207;42.648;23.406;2022-12-05T07:13:07;19.00;;;11.97;;
6348;SDS011;3207;42.648;23.406;2022-12-05T07:15:36;22.93;;;12.97;;
6348;SDS011;3207;42.648;23.406;2022-12-05T07:18:02;23.13;;;13.47;;
6348;SDS011;3207;42.648;23.406;2022-12-05T07:20:31;22.83;;;13.57;;
6348;SDS011;3207;42.648;23.406;2022-12-05T07:22:57;24.10;;;12.23;;
6348;SDS011;3207;42.648;23.406;2022-12-05T07:25:24;21.17;;;12.70;;
6348;SDS011;3207;42.648;23.406;2022-12-05T07:27:51;26.00;;;14.17;;
6348;SDS011;3207;42.648;23.406;2022-12-05T07:30:18;20.07;;;12.40;;
6348;SDS011;3207;42.648;23.406;2022-12-05T07:32:45;22.00;;;12.70;;
6348;SDS011;3207;42.648;23.406;2022-12-05T07:35:11;18.27;;;12.40;;
6348;SDS011;3207;42.648;23.406;2022-12-05T07:37:40;19.40;;;12.10;;
6348;SDS011;3207;42.648;23.406;2022-12-05T07:40:07;27.27;;;13.67;;
6348;SDS011;3207;42.648;23.406;2022-12-05T07:42:35;18.70;;;12.00;;
6348;SDS011;3207;42.648;23.406;2022-12-05T07:45:01;16.63;;;11.03;;
6348;SDS011;3207;42.648;23.406;2022-12-05T07:47:28;22.07;;;12.93;;
6348;SDS011;3207;42.648;23.406;2022-12-05T07:49:55;24.83;;;13.73;;
6348;SDS011;3207;42.648;23.406;2022-12-05T07:52:22;22.77;;;13.50;;
6348;SDS011;3207;42.648;23.406;2022-12-05T07:54:50;20.23;;;12.57;;
6348;SDS011;3207;42.648;23.406;2022-12-05T07:57:17;24.67;;;13.17;;
6348;SDS011;3207;42.648;23.406;2022-12-05T07:59:44;23.37;;;13.33;;
6348;SDS011;3207;42.648;23.406;2022-12-05T08:02:10;23.67;;;14.23;;
6348;SDS011;3207;42.648;23.406;2022-12-05T08:04:37;23.43;;;14.07;;
6348;SDS011;3207;42.648;23.406;2022-12-05T08:07:04;25.70;;;13.87;;
6348;SDS011;3207;42.648;23.406;2022-12-05T08:09:31;24.57;;;14.50;;
6348;SDS011;3207;42.648;23.406;2022-12-05T08:11:59;24.57;;;13.73;;
6348;SDS011;3207;42.648;23.406;2022-12-05T08:14:26;27.53;;;14.53;;
6348;SDS011;3207;42.648;23.406;2022-12-05T08:16:53;26.70;;;14.03;;
6348;SDS011;3207;42.648;23.406;2022-12-05T08:19:20;21.87;;;13.33;;
6348;SDS011;3207;42.648;23.406;2022-12-05T08:21:47;25.70;;;14.40;;
6348;SDS011;3207;42.648;23.406;2022-12-05T08:24:14;24.03;;;13.70;;
6348;SDS011;3207;42.648;23.406;2022-12-05T08:26:40;24.90;;;13.80;;
6348;SDS011;3207;42.648;23.406;2022-12-05T08:29:09;21.73;;;13.27;;
6348;SDS011;3207;42.648;23.406;2022-12-05T08:31:39;18.17;;;12.20;;
6348;SDS011;3207;42.648;23.406;2022-12-05T08:34:09;24.20;;;14.37;;
6348;SDS011;3207;42.648;23.406;2022-12-05T08:36:37;22.80;;;14.10;;
6348;SDS011;3207;42.648;23.406;2022-12-05T08:39:04;22.83;;;14.53;;
6348;SDS011;3207;42.648;23.406;2022-12-05T08:41:32;22.67;;;14.83;;
6348;SDS011;3207;42.648;23.406;2022-12-05T08:44:00;23.67;;;14.53;;
6348;SDS011;3207;42.648;23.406;2022-12-05T08:46:31;23.40;;;15.73;;
6348;SDS011;3207;42.648;23.406;2022-12-05T08:48:59;21.13;;;14.33;;
6348;SDS011;3207;42.648;23.406;2022-12-05T08:51:26;25.87;;;15.23;;
6348;SDS011;3207;42.648;23.406;2022-12-05T08:53:52;23.73;;;15.00;;
6348;SDS011;3207;42.648;23.406;2022-12-05T08:56:20;25.70;;;15.80;;
6348;SDS011;3207;42.648;23.406;2022-12-05T08:58:47;24.87;;;15.93;;
6348;SDS011;3207;42.648;23.406;2022-12-05T09:01:15;26.00;;;16.97;;
6348;SDS011;3207;42.648;23.406;2022-12-05T09:03:45;23.70;;;15.03;;
6348;SDS011;3207;42.648;23.406;2022-12-05T09:06:12;22.67;;;15.37;;
6348;SDS011;3207;42.648;23.406;2022-12-05T09:08:40;24.33;;;15.47;;
6348;SDS011;3207;42.648;23.406;2022-12-05T09:11:09;28.10;;;16.20;;
6348;SDS011;3207;42.648;23.406;2022-12-05T09:13:37;21.97;;;14.90;;
6348;SDS011;3207;42.648;23.406;2022-12-05T09:16:05;20.13;;;14.03;;
6348;SDS011;3207;42.648;23.406;2022-12-05T09:18:33;25.83;;;13.93;;
6348;SDS011;3207;42.648;23.406;2022-12-05T09:21:05;17.10;;;13.30;;
6348;SDS011;3207;42.648;23.406;2022-12-05T09:23:32;17.20;;;12.67;;
6348;SDS011;3207;42.648;23.406;2022-12-05T09:25:59;24.07;;;14.53;;
6348;SDS011;3207;42.648;23.406;2022-12-05T09:28:26;19.80;;;15.07;;
6348;SDS011;3207;42.648;23.406;2022-12-05T09:30:56;25.07;;;15.07;;
6348;SDS011;3207;42.648;23.406;2022-12-05T09:33:23;22.03;;;13.77;;
6348;SDS011;3207;42.648;23.406;2022-12-05T09:35:50;25.27;;;16.50;;
6348;SDS011;3207;42.648;23.406;2022-12-05T09:38:18;23.47;;;15.70;;
6348;SDS011;3207;42.648;23.406;2022-12-05T09:40:46;25.57;;;15.23;;
6348;SDS011;3207;42.648;23.406;2022-12-05T09:43:18;30.03;;;20.07;;
6348;SDS011;3207;42.648;23.406;2022-12-05T09:45:51;24.90;;;17.37;;
6348;SDS011;3207;42.648;23.406;2022-12-05T09:48:24;22.40;;;14.23;;
6348;SDS011;3207;42.648;23.406;2022-12-05T09:50:53;18.97;;;13.20;;
6348;SDS011;3207;42.648;23.406;2022-12-05T09:53:26;21.43;;;14.03;;
6348;SDS011;3207;42.648;23.406;2022-12-05T09:55:56;24.03;;;14.67;;
6348;SDS011;3207;42.648;23.406;2022-12-05T09:58:32;23.47;;;13.37;;
6348;SDS011;3207;42.648;23.406;2022-12-05T10:01:14;20.30;;;14.13;;
6348;SDS011;3207;42.648;23.406;2022-12-05T10:03:57;18.40;;;12.47;;
6348;SDS011;3207;42.648;23.406;2022-12-05T10:06:31;20.10;;;14.07;;
6348;SDS011;3207;42.648;23.406;2022-12-05T10:09:06;20.10;;;13.80;;
6348;SDS011;3207;42.648;23.406;2022-12-05T10:11:45;20.93;;;14.43;;
6348;SDS011;3207;42.648;23.406;2022-12-05T10:14:23;20.07;;;13.50;;
6348;SDS011;3207;42.648;23.406;2022-12-05T10:17:04;21.47;;;14.47;;
6348;SDS011;3207;42.648;23.406;2022-12-05T10:19:40;22.30;;;15.13;;
6348;SDS011;3207;42.648;23.406;2022-12-05T10:22:12;22.40;;;14.77;;
6348;SDS011;3207;42.648;23.406;2022-12-05T10:24:45;17.63;;;13.87;;
6348;SDS011;3207;42.648;23.406;2022-12-05T10:27:15;18.57;;;13.37;;
6348;SDS011;3207;42.648;23.406;2022-12-05T10:29:48;20.83;;;13.87;;
6348;SDS011;3207;42.648;23.406;2022-12-05T10:32:21;22.33;;;15.23;;
6348;SDS011;3207;42.648;23.406;2022-12-05T10:34:53;18.67;;;13.17;;
6348;SDS011;3207;42.648;23.406;2022-12-05T10:37:27;18.13;;;13.57;;
6348;SDS011;3207;42.648;23.406;2022-12-05T10:39:57;18.83;;;14.43;;
6348;SDS011;3207;42.648;23.406;2022-12-05T10:42:24;20.67;;;13.87;;
6348;SDS011;3207;42.648;23.406;2022-12-05T10:44:55;18.27;;;13.23;;
6348;SDS011;3207;42.648;23.406;2022-12-05T10:47:23;18.63;;;12.77;;
6348;SDS011;3207;42.648;23.406;2022-12-05T10:49:50;18.63;;;13.47;;
6348;SDS011;3207;42.648;23.406;2022-12-05T10:52:19;16.10;;;11.93;;
6348;SDS011;3207;42.648;23.406;2022-12-05T10:54:48;18.63;;;14.07;;
6348;SDS011;3207;42.648;23.406;2022-12-05T10:57:22;19.07;;;13.27;;
6348;SDS011;3207;42.648;23.406;2022-12-05T10:59:50;18.40;;;13.67;;
6348;SDS011;3207;42.648;23.406;2022-12-05T11:02:20;19.23;;;14.20;;
6348;SDS011;3207;42.648;23.406;2022-12-05T11:04:50;22.00;;;14.77;;
6348;SDS011;3207;42.648;23.406;2022-12-05T11:07:25;19.90;;;14.03;;
6348;SDS011;3207;42.648;23.406;2022-12-05T11:09:55;18.13;;;14.47;;
6348;SDS011;3207;42.648;23.406;2022-12-05T11:12:24;20.63;;;15.17;;
6348;SDS011;3207;42.648;23.406;2022-12-05T11:14:56;19.73;;;15.53;;
6348;SDS011;3207;42.648;23.406;2022-12-05T11:17:26;20.70;;;15.80;;
6348;SDS011;3207;42.648;23.406;2022-12-05T11:19:57;22.57;;;16.20;;
6348;SDS011;3207;42.648;23.406;2022-12-05T11:22:30;25.30;;;16.87;;
6348;SDS011;3207;42.648;23.406;2022-12-05T11:24:59;23.40;;;17.83;;
6348;SDS011;3207;42.648;23.406;2022-12-05T11:27:28;21.53;;;16.73;;
6348;SDS011;3207;42.648;23.406;2022-12-05T11:29:58;26.43;;;17.47;;
6348;SDS011;3207;42.648;23.406;2022-12-05T11:32:27;23.07;;;17.20;;
6348;SDS011;3207;42.648;23.406;2022-12-05T11:34:57;22.77;;;16.73;;
6348;SDS011;3207;42.648;23.406;2022-12-05T11:37:31;24.23;;;17.17;;
6348;SDS011;3207;42.648;23.406;2022-12-05T11:40:11;24.07;;;17.50;;
6348;SDS011;3207;42.648;23.406;2022-12-05T11:42:45;22.60;;;16.50;;
6348;SDS011;3207;42.648;23.406;2022-12-05T11:45:38;21.87;;;16.90;;
6348;SDS011;3207;42.648;23.406;2022-12-05T11:51:22;26.97;;;19.97;;
6348;SDS011;3207;42.648;23.406;2022-12-05T11:54:04;28.37;;;19.00;;
6348;SDS011;3207;42.648;23.406;2022-12-05T11:56:48;24.50;;;18.03;;
6348;SDS011;3207;42.648;23.406;2022-12-05T11:59:27;26.23;;;19.90;;
6348;SDS011;3207;42.648;23.406;2022-12-05T12:02:12;24.83;;;18.07;;
6348;SDS011;3207;42.648;23.406;2022-12-05T12:04:49;26.17;;;19.63;;
6348;SDS011;3207;42.648;23.406;2022-12-05T12:07:24;28.67;;;20.17;;
6348;SDS011;3207;42.648;23.406;2022-12-05T12:10:07;30.67;;;21.47;;
6348;SDS011;3207;42.648;23.406;2022-12-05T12:12:41;29.50;;;21.07;;
6348;SDS011;3207;42.648;23.406;2022-12-05T12:15:26;33.87;;;23.00;;
6348;SDS011;3207;42.648;23.406;2022-12-05T12:18:06;34.67;;;24.17;;
6348;SDS011;3207;42.648;23.406;2022-12-05T12:20:50;34.40;;;24.63;;
6348;SDS011;3207;42.648;23.406;2022-12-05T12:23:34;39.50;;;26.53;;
6348;SDS011;3207;42.648;23.406;2022-12-05T12:26:10;41.43;;;26.97;;
6348;SDS011;3207;42.648;23.406;2022-12-05T12:28:44;41.37;;;26.87;;
6348;SDS011;3207;42.648;23.406;2022-12-05T12:31:29;39.40;;;27.17;;
6348;SDS011;3207;42.648;23.406;2022-12-05T12:34:04;43.47;;;29.47;;
6348;SDS011;3207;42.648;23.406;2022-12-05T12:36:47;42.70;;;26.63;;
6348;SDS011;3207;42.648;23.406;2022-12-05T12:39:24;46.83;;;29.30;;
6348;SDS011;3207;42.648;23.406;2022-12-05T12:42:07;42.10;;;29.83;;
6348;SDS011;3207;42.648;23.406;2022-12-05T12:44:49;37.67;;;23.30;;
6348;SDS011;3207;42.648;23.406;2022-12-05T12:47:38;43.83;;;29.97;;
6348;SDS011;3207;42.648;23.406;2022-12-05T12:50:15;56.13;;;30.90;;
6348;SDS011;3207;42.648;23.406;2022-12-05T12:52:50;50.30;;;30.93;;
6348;SDS011;3207;42.648;23.406;2022-12-05T12:55:33;47.23;;;30.03;;
6348;SDS011;3207;42.648;23.406;2022-12-05T12:58:10;48.57;;;28.37;;
6348;SDS011;3207;42.648;23.406;2022-12-05T13:00:50;44.63;;;27.60;;
6348;SDS011;3207;42.648;23.406;2022-12-05T13:03:29;45.17;;;26.90;;
6348;SDS011;3207;42.648;23.406;2022-12-05T13:06:03;45.17;;;27.47;;
6348;SDS011;3207;42.648;23.406;2022-12-05T13:08:36;45.60;;;26.67;;
6348;SDS011;3207;42.648;23.406;2022-12-05T13:11:09;50.40;;;29.40;;
6348;SDS011;3207;42.648;23.406;2022-12-05T13:13:39;54.13;;;29.93;;
6348;SDS011;3207;42.648;23.406;2022-12-05T13:16:09;54.70;;;29.90;;
6348;SDS011;3207;42.648;23.406;2022-12-05T13:18:43;47.77;;;28.13;;
6348;SDS011;3207;42.648;23.406;2022-12-05T13:21:11;54.17;;;30.43;;
6348;SDS011;3207;42.648;23.406;2022-12-05T13:23:39;57.03;;;32.83;;
6348;SDS011;3207;42.648;23.406;2022-12-05T13:26:11;56.33;;;32.07;;
6348;SDS011;3207;42.648;23.406;2022-12-05T13:28:39;61.37;;;32.47;;
6348;SDS011;3207;42.648;23.406;2022-12-05T13:31:15;62.60;;;33.70;;
6348;SDS011;3207;42.648;23.406;2022-12-05T13:33:45;53.03;;;30.53;;
6348;SDS011;3207;42.648;23.406;2022-12-05T13:36:14;58.30;;;31.57;;
6348;SDS011;3207;42.648;23.406;2022-12-05T13:39:02;55.97;;;31.87;;
6348;SDS011;3207;42.648;23.406;2022-12-05T13:41:49;57.43;;;32.40;;
6348;SDS011;3207;42.648;23.406;2022-12-05T13:44:37;60.23;;;32.97;;
6348;SDS011;3207;42.648;23.406;2022-12-05T13:47:07;58.37;;;34.00;;
6348;SDS011;3207;42.648;23.406;2022-12-05T13:49:49;52.40;;;30.07;;
6348;SDS011;3207;42.648;23.406;2022-12-05T13:52:19;55.83;;;31.83;;
6348;SDS011;3207;42.648;23.406;2022-12-05T13:54:50;59.80;;;32.80;;
6348;SDS011;3207;42.648;23.406;2022-12-05T14:00:21;56.60;;;30.83;;
6348;SDS011;3207;42.648;23.406;2022-12-05T14:02:51;59.43;;;31.00;;
6348;SDS011;3207;42.648;23.406;2022-12-05T14:11:27;53.60;;;28.60;;
6348;SDS011;3207;42.648;23.406;2022-12-05T14:13:54;62.23;;;31.93;;
6348;SDS011;3207;42.648;23.406;2022-12-05T14:19:15;50.20;;;27.53;;
6348;SDS011;3207;42.648;23.406;2022-12-05T14:22:06;47.67;;;27.70;;
6348;SDS011;3207;42.648;23.406;2022-12-05T14:24:44;48.60;;;25.63;;
6348;SDS011;3207;42.648;23.406;2022-12-05T14:27:22;49.70;;;27.40;;
6348;SDS011;3207;42.648;23.406;2022-12-05T14:30:10;51.03;;;28.80;;
6348;SDS011;3207;42.648;23.406;2022-12-05T14:32:47;51.00;;;29.40;;
6348;SDS011;3207;42.648;23.406;2022-12-05T14:35:17;46.57;;;26.57;;
6348;SDS011;3207;42.648;23.406;2022-12-05T14:37:56;43.83;;;27.40;;
6348;SDS011;3207;42.648;23.406;2022-12-05T14:40:28;42.10;;;23.87;;
6348;SDS011;3207;42.648;23.406;2022-12-05T14:42:57;34.70;;;21.63;;
6348;SDS011;3207;42.648;23.406;2022-12-05T14:45:27;42.20;;;23.33;;
6348;SDS011;3207;42.648;23.406;2022-12-05T14:47:57;43.70;;;27.57;;
6348;SDS011;3207;42.648;23.406;2022-12-05T14:50:37;38.30;;;22.57;;
6348;SDS011;3207;42.648;23.406;2022-12-05T14:53:24;35.87;;;20.73;;
6348;SDS011;3207;42.648;23.406;2022-12-05T14:55:57;34.73;;;21.93;;
6348;SDS011;3207;42.648;23.406;2022-12-05T14:58:33;36.43;;;22.23;;
6348;SDS011;3207;42.648;23.406;2022-12-05T15:01:04;39.93;;;22.23;;
6348;SDS011;3207;42.648;23.406;2022-12-05T15:03:34;37.27;;;21.00;;
6348;SDS011;3207;42.648;23.406;2022-12-05T15:06:04;40.00;;;24.00;;
6348;SDS011;3207;42.648;23.406;2022-12-05T15:08:39;46.80;;;27.23;;
6348;SDS011;3207;42.648;23.406;2022-12-05T15:11:12;36.60;;;23.33;;
6348;SDS011;3207;42.648;23.406;2022-12-05T15:13:52;34.27;;;20.23;;